首页
METAR-TAF:

METAR-TAF

机场 :

安曼民航機場

安曼, 约旦

纬度: 31-59N, 经度: 035-59E, 海拔: 767米

当前天气观测

该预报发布于23分钟前的07:00 UTC
静风
温度 7°C
湿度 66%
气压 1015 hPa
能見度: 4000

METAR: OJAM 240700Z 00000KT 4000 HZ NSC 07/01 Q1015 NOSIG

时间: 09:23 (07:23 UTC)

预报

该预报发布于1小时和43分钟前的05:40 UTC
预报有效从24日的 06点(UTC)到 25日的 12点(UTC)
风速2节,风向多变
能見度: 3000
成为
从 24日的 08点(UTC)到 24日的 10点(UTC)
风速12节,风向西南
能見度: 4000
几率 30%
从 24日的 12点(UTC)到 24日的 24点(UTC)
能見度: 3000
浮尘

TAF: OJAM 240540Z 2406/2512 VRB02KT 3000 HZ NSC BECMG 2408/2410 22012KT 4000 PROB30 2412/2424 3000 DU

超过4000个机场的气象观测和天气预报(METAR&TAF报告)。

可查询的气象台以黄色和红色小点在地图上表示。

将鼠标移到小点上方,可查看气象台名称。

然后点击查看天气观测和预报。

如需切换地图:点击带黑十字的绿色按钮放大地图;点击带横线的绿色按钮缩小地图;或者点击绿色箭头查看邻近地区的地图。


METAR-TAF: